UKT weather

Quakertown Airport
Quakertown, Pennsylvania, United States

Public forecast

Using degrees Fahrenheit for public forecast. Weather courtesy of forecast.io.

Current aviation weather report (METAR) for Quakertown Airport

Retrieved 2020/01/17 23:40 UTC (5 minutes ago):

KUKT 172340Z AUTO 00000G10KT 10SM CLR M05/M17 A3069 RMK A01

Closest aviation forecast (TAF) to Quakertown Airport

Closest forecast is Lehigh Valley International Airport, 13.3 nm (24.6 km) NNW. Retrieved 2020/01/17 18:42 UTC (5 hours ago):

TAF KABE 171739Z 1718/1818 34011G19KT P6SM SKC FM172000 34010KT P6SM SKC FM180000 33006KT P6SM SCT200 FM180800 VRB02KT P6SM BKN200 FM181500 16005KT P6SM -SN OVC080 FM181700 16006KT 4SM -SN OVC035